Time;durP1;ratioP1;P1;durP2;ratioP2;P2;SDS_P1;SDS_P2;PMS_P1;PMS_P2;Temp;Humidity;BMP_temperature;BMP_pressure;BME280_temperature;BME280_humidity;BME280_pressure;Samples;Min_cycle;Max_cycle;Signal;HPM_P1;HPM_P2
2022/10/25 00:01:29;;;;;;;21.03;3.13;;;;;;;13.80;100.00;101245.88;5089466;28;20043;-74
2022/10/25 00:03:55;;;;;;;13.48;3.58;;;;;;;13.72;100.00;101243.34;5069058;28;20044;-74
2022/10/25 00:06:21;;;;;;;22.57;3.40;;;;;;;13.78;100.00;101248.00;5067277;28;20027;-73
2022/10/25 00:08:46;;;;;;;14.07;2.53;;;;;;;13.79;100.00;101244.19;5087585;28;20057;-73
2022/10/25 00:11:19;;;;;;;20.50;2.47;;;;;;;13.83;99.74;101237.22;5087980;28;20036;-73
2022/10/25 00:13:47;;;;;;;26.05;3.25;;;;;;;13.77;99.73;101251.81;5086731;28;20379;-74
2022/10/25 00:16:15;;;;;;;16.83;3.25;;;;;;;13.69;100.00;101239.09;5087764;28;20031;-73
2022/10/25 00:18:41;;;;;;;19.70;3.28;;;;;;;13.72;100.00;101243.34;5086909;28;20516;-74
2022/10/25 00:21:06;;;;;;;15.43;5.13;;;;;;;13.74;100.00;101246.72;5086047;28;20106;-74
2022/10/25 00:23:31;;;;;;;19.93;3.00;;;;;;;13.74;100.00;101247.56;5085863;28;20089;-74
2022/10/25 00:26:04;;;;;;;23.23;3.17;;;;;;;13.74;100.00;101246.72;5068804;28;20028;-74
2022/10/25 00:28:30;;;;;;;27.52;3.75;;;;;;;13.67;100.00;101245.84;5088946;28;20403;-74
2022/10/25 00:31:01;;;;;;;19.23;3.20;;;;;;;13.68;100.00;101247.56;5074783;28;20036;-74
2022/10/25 00:33:29;;;;;;;26.10;2.72;;;;;;;13.65;100.00;101239.69;5085904;28;20442;-74
2022/10/25 00:35:54;;;;;;;15.13;2.72;;;;;;;13.46;100.00;101249.59;5087872;28;20043;-74
2022/10/25 00:38:19;;;;;;;33.53;4.03;;;;;;;13.50;100.00;101250.06;5086212;28;20020;-74
2022/10/25 00:40:45;;;;;;;22.07;3.37;;;;;;;13.46;100.00;101248.75;5086416;28;20490;-73
2022/10/25 00:43:10;;;;;;;29.90;4.70;;;;;;;13.44;100.00;101248.13;5085592;28;20426;-74
2022/10/25 00:45:36;;;;;;;36.00;3.47;;;;;;;13.49;100.00;101262.09;5085623;28;20071;-74
2022/10/25 00:48:08;;;;;;;51.58;4.68;;;;;;;13.49;100.00;101253.81;5070284;28;20067;-73
2022/10/25 00:50:49;;;;;;;32.20;3.35;;;;;;;13.43;100.00;101255.53;5088472;28;20056;-73
2022/10/25 00:53:20;;;;;;;27.67;4.05;;;;;;;13.46;100.00;101255.09;5084055;28;20035;-73
2022/10/25 00:55:52;;;;;;;25.80;3.90;;;;;;;13.47;100.00;101255.94;5084934;28;20036;-74
2022/10/25 00:58:23;;;;;;;32.63;3.03;;;;;;;13.52;100.00;101261.69;5070921;28;20123;-74
2022/10/25 01:00:49;;;;;;;21.48;2.80;;;;;;;13.53;100.00;101260.63;5071107;28;20039;-74
2022/10/25 01:03:16;;;;;;;29.13;3.58;;;;;;;13.52;100.00;101258.94;5086708;28;20414;-73
2022/10/25 01:05:42;;;;;;;26.13;3.53;;;;;;;13.59;100.00;101268.06;5087744;28;20044;-74
2022/10/25 01:08:09;;;;;;;34.28;3.90;;;;;;;13.58;100.00;101264.47;5069678;28;20040;-73
2022/10/25 01:10:37;;;;;;;25.85;3.08;;;;;;;13.56;100.00;101261.06;5085742;28;20032;-75
2022/10/25 01:13:03;;;;;;;21.38;3.28;;;;;;;13.55;100.00;101266.78;5087199;28;20059;-74
2022/10/25 01:15:38;;;;;;;29.37;3.63;;;;;;;13.56;100.00;101272.06;5072819;28;20028;-75
2022/10/25 01:18:43;;;;;;;24.73;3.50;;;;;;;13.49;100.00;101271.19;5091529;28;20031;-75
2022/10/25 01:21:28;;;;;;;22.70;2.67;;;;;;;13.54;100.00;101274.19;5033245;28;20036;-74
2022/10/25 01:24:06;;;;;;;19.73;3.60;;;;;;;13.53;100.00;101275.25;5087795;28;20466;-74
2022/10/25 01:26:50;;;;;;;30.30;3.70;;;;;;;13.54;100.00;101279.69;5090740;28;20416;-73
2022/10/25 01:29:28;;;;;;;18.58;3.58;;;;;;;13.59;100.00;101273.56;5079543;28;20052;-74
2022/10/25 01:32:00;;;;;;;19.10;2.72;;;;;;;13.54;100.00;101279.69;5085468;28;20119;-74
2022/10/25 01:34:32;;;;;;;18.90;2.72;;;;;;;13.50;100.00;101280.31;5091132;28;20102;-74
2022/10/25 01:37:09;;;;;;;22.83;4.85;;;;;;;13.50;100.00;101281.16;5089111;28;20031;-74
2022/10/25 01:39:58;;;;;;;32.08;3.45;;;;;;;13.46;100.00;101276.28;5072902;28;20058;-74
2022/10/25 01:42:45;;;;;;;21.00;3.10;;;;;;;13.42;100.00;101286.84;5083261;28;20040;-75
2022/10/25 01:45:23;;;;;;;22.98;3.45;;;;;;;13.34;100.00;101280.69;5087736;28;20498;-74
2022/10/25 01:48:29;;;;;;;22.75;3.63;;;;;;;13.25;100.00;101284.63;5089488;28;20111;-75
2022/10/25 01:50:54;;;;;;;48.13;4.18;;;;;;;13.25;100.00;101288.25;5073936;28;20097;-75
2022/10/25 01:53:19;;;;;;;41.13;5.03;;;;;;;13.25;100.00;101292.91;5088636;28;20028;-74
2022/10/25 01:55:53;;;;;;;33.73;3.43;;;;;;;13.28;100.00;101298.84;5091477;28;20459;-74
2022/10/25 01:58:32;;;;;;;31.02;3.97;;;;;;;13.33;100.00;101292.72;5094702;28;20023;-74
2022/10/25 02:01:24;;;;;;;23.38;3.22;;;;;;;13.35;100.00;101296.97;5091016;28;20043;-74
2022/10/25 02:04:01;;;;;;;22.88;3.05;;;;;;;13.38;100.00;101291.06;5071598;28;20387;-74
2022/10/25 02:06:51;;;;;;;26.67;4.68;;;;;;;13.39;100.00;101297.41;5090213;28;20051;-74
2022/10/25 02:09:49;;;;;;;24.55;3.50;;;;;;;13.36;100.00;101303.31;5082847;28;20024;-74
2022/10/25 02:12:23;;;;;;;29.67;4.18;;;;;;;13.29;100.00;101299.69;5089398;28;20058;-74
2022/10/25 02:15:12;;;;;;;16.48;2.75;;;;;;;13.26;100.00;101292.69;5088558;28;20104;-75
2022/10/25 02:17:44;;;;;;;25.48;3.95;;;;;;;13.30;100.00;101306.91;5090695;28;20049;-74
2022/10/25 02:20:14;;;;;;;32.67;3.88;;;;;;;13.23;100.00;101304.09;5089439;28;20085;-74
2022/10/25 02:22:40;;;;;;;25.20;3.53;;;;;;;13.21;100.00;101306.22;5088370;28;20111;-74
2022/10/25 02:25:07;;;;;;;24.07;3.10;;;;;;;13.20;100.00;101309.16;5067460;28;20551;-75
2022/10/25 02:27:35;;;;;;;25.58;3.97;;;;;;;13.20;100.00;101306.41;5069054;28;20093;-74
2022/10/25 02:30:01;;;;;;;29.30;3.70;;;;;;;13.22;100.00;101304.28;5085713;28;20115;-75
2022/10/25 02:32:26;;;;;;;16.20;3.17;;;;;;;13.21;100.00;101310.84;5072088;28;20111;-74
2022/10/25 02:34:52;;;;;;;27.87;3.20;;;;;;;13.18;100.00;101311.28;5083202;28;20464;-74
2022/10/25 02:37:17;;;;;;;22.47;3.80;;;;;;;13.18;100.00;101305.78;5087544;28;20028;-74
2022/10/25 02:39:44;;;;;;;31.80;3.40;;;;;;;13.22;100.00;101309.78;5090537;28;20498;-74
2022/10/25 02:42:09;;;;;;;;;;;;;;;13.17;100.00;101312.31;5072669;28;20039;-74
2022/10/25 02:44:35;;;;;;;16.42;2.95;;;;;;;13.23;100.00;101319.78;5090419;28;19924;-74
2022/10/25 02:47:00;;;;;;;32.27;4.17;;;;;;;13.15;100.00;101315.28;5087160;28;20081;-73
2022/10/25 02:49:25;;;;;;;22.70;3.80;;;;;;;13.04;100.00;101315.84;5088536;28;20429;-75
2022/10/25 02:51:51;;;;;;;23.17;3.73;;;;;;;12.98;100.00;101319.38;5058030;28;20122;-74
2022/10/25 02:54:16;;;;;;;35.83;3.13;;;;;;;13.11;100.00;101322.22;5053204;28;20119;-73
2022/10/25 02:56:41;;;;;;;22.97;4.30;;;;;;;12.99;100.00;101323.84;5084694;28;20040;-74
2022/10/25 02:59:10;;;;;;;26.67;4.53;;;;;;;12.95;100.00;101332.66;5090515;28;20047;-74
2022/10/25 03:01:35;;;;;;;22.33;3.88;;;;;;;12.95;100.00;101321.66;5089060;28;20128;-74
2022/10/25 03:04:01;;;;;;;22.43;3.13;;;;;;;12.91;100.00;101326.72;5068633;28;20526;-74
2022/10/25 03:06:26;;;;;;;24.97;3.10;;;;;;;12.95;100.00;101338.16;5086039;28;20498;-74
2022/10/25 03:08:52;;;;;;;21.90;4.13;;;;;;;12.91;100.00;101343.19;5063350;28;20445;-74
2022/10/25 03:11:17;;;;;;;30.70;3.50;;;;;;;12.91;100.00;101345.94;5081027;28;20048;-73
2022/10/25 03:13:43;;;;;;;27.03;4.20;;;;;;;12.80;100.00;101348.44;5072194;28;20016;-74
2022/10/25 03:16:08;;;;;;;30.50;3.63;;;;;;;12.83;100.00;101350.75;5086740;28;20082;-73
2022/10/25 03:18:33;;;;;;;29.13;3.90;;;;;;;12.78;100.00;101345.00;5068339;28;20024;-74
2022/10/25 03:21:00;;;;;;;23.20;3.37;;;;;;;12.78;100.00;101353.25;5089927;28;20035;-74
2022/10/25 03:23:26;;;;;;;42.38;4.65;;;;;;;12.74;100.00;101346.44;5069536;28;20016;-74
2022/10/25 03:25:58;;;;;;;39.35;3.90;;;;;;;12.75;100.00;101356.41;5072038;28;20036;-73
2022/10/25 03:28:26;;;;;;;25.60;3.33;;;;;;;12.78;100.00;101358.75;5067337;28;20032;-74
2022/10/25 03:30:51;;;;;;;24.92;4.32;;;;;;;12.80;100.00;101357.50;5072373;28;20118;-74
2022/10/25 03:33:17;;;;;;;16.20;3.27;;;;;;;12.88;100.00;101359.25;5089063;28;20032;-73
2022/10/25 03:35:42;;;;;;;15.67;3.57;;;;;;;12.85;100.00;101363.25;5088600;28;20501;-74
2022/10/25 03:38:07;;;;;;;25.60;5.00;;;;;;;12.78;100.00;101359.63;5087245;28;20036;-74
2022/10/25 03:40:33;;;;;;;31.50;4.13;;;;;;;12.84;100.00;101349.69;5081652;28;20024;-74
2022/10/25 03:42:58;;;;;;;35.47;4.30;;;;;;;12.88;100.00;101348.25;5070619;28;20040;-74
2022/10/25 03:45:23;;;;;;;22.70;4.03;;;;;;;12.85;100.00;101360.50;5089351;28;20401;-75
2022/10/25 03:47:50;;;;;;;12.20;3.60;;;;;;;12.85;100.00;101368.75;5087556;28;20040;-75
2022/10/25 03:50:16;;;;;;;18.10;3.55;;;;;;;12.97;100.00;101371.84;5087939;28;20032;-74
2022/10/25 03:52:41;;;;;;;21.57;4.37;;;;;;;13.09;100.00;101384.00;5072378;28;20506;-75
2022/10/25 03:55:07;;;;;;;28.03;4.73;;;;;;;13.11;100.00;101376.38;5089021;28;20028;-75
2022/10/25 03:57:32;;;;;;;16.60;4.17;;;;;;;13.07;100.00;101375.09;5088689;28;20043;-75
2022/10/25 03:59:58;;;;;;;44.17;4.80;;;;;;;13.05;100.00;101378.06;5088650;28;20039;-75
2022/10/25 04:02:24;;;;;;;11.40;3.27;;;;;;;13.07;100.00;101380.59;5089483;28;20487;-75
2022/10/25 04:04:50;;;;;;;8.43;3.30;;;;;;;13.02;100.00;101366.59;5085210;28;20611;-75
2022/10/25 04:07:16;;;;;;;20.57;4.17;;;;;;;12.98;100.00;101379.88;5079176;28;20123;-74
2022/10/25 04:09:41;;;;;;;16.67;3.57;;;;;;;13.03;100.00;101380.13;5070266;28;20024;-74
2022/10/25 04:12:06;;;;;;;32.93;3.53;;;;;;;13.11;100.00;101377.25;5089512;28;20028;-73
2022/10/25 04:14:32;;;;;;;19.33;3.40;;;;;;;13.08;100.00;101374.88;5084966;28;20024;-75
2022/10/25 04:17:00;;;;;;;20.50;4.07;;;;;;;13.08;100.00;101372.13;5072025;28;20493;-75
2022/10/25 04:19:27;;;;;;;16.55;3.47;;;;;;;13.04;100.00;101381.84;5088994;28;20024;-76
2022/10/25 04:21:52;;;;;;;22.40;4.10;;;;;;;12.93;100.00;101390.63;5067501;28;20024;-75
2022/10/25 04:24:18;;;;;;;17.87;3.77;;;;;;;12.95;100.00;101399.50;5083878;28;20028;-74
2022/10/25 04:26:43;;;;;;;13.50;2.83;;;;;;;13.05;100.00;101399.19;5068341;28;20020;-76
2022/10/25 04:29:09;;;;;;;25.07;4.10;;;;;;;12.90;100.00;101399.25;5084336;28;20039;-75
2022/10/25 04:31:35;;;;;;;13.07;3.70;;;;;;;12.92;100.00;101401.81;5076229;28;20039;-73
2022/10/25 04:34:02;;;;;;;20.93;3.37;;;;;;;12.97;100.00;101394.69;5065470;28;20495;-75
2022/10/25 04:36:29;;;;;;;18.27;2.75;;;;;;;12.99;100.00;101402.75;5088072;28;20107;-73
2022/10/25 04:38:54;;;;;;;;;;;;;;;12.99;100.00;101406.34;5088883;28;20099;-75
2022/10/25 04:41:20;;;;;;;24.67;3.28;;;;;;;12.99;100.00;101417.34;5064893;28;20066;-74
2022/10/25 04:43:47;;;;;;;19.13;3.27;;;;;;;12.94;100.00;101421.69;5086179;28;20127;-75
2022/10/25 04:46:13;;;;;;;21.30;3.38;;;;;;;12.97;100.00;101413.09;5090170;28;20048;-73
2022/10/25 04:48:40;;;;;;;22.25;3.38;;;;;;;12.96;100.00;101419.66;5067780;28;20020;-74
2022/10/25 04:51:06;;;;;;;27.50;3.72;;;;;;;13.00;100.00;101427.31;5086865;28;20069;-74
2022/10/25 04:53:31;;;;;;;31.88;3.90;;;;;;;13.04;100.00;101428.63;5084852;28;20032;-74
2022/10/25 04:56:02;;;;;;;12.83;3.27;;;;;;;12.98;100.00;101425.78;5088008;28;20036;-74
2022/10/25 04:58:28;;;;;;;13.23;2.97;;;;;;;13.01;100.00;101431.75;5086529;28;20193;-75
2022/10/25 05:00:59;;;;;;;19.03;3.20;;;;;;;13.00;100.00;101413.56;5067677;28;20123;-74
2022/10/25 05:03:24;;;;;;;17.88;3.28;;;;;;;13.05;100.00;101432.19;5068338;28;20024;-74
2022/10/25 05:05:49;;;;;;;15.23;3.53;;;;;;;13.09;100.00;101436.25;5087156;28;20036;-74
2022/10/25 05:08:15;;;;;;;15.27;3.40;;;;;;;13.13;100.00;101437.56;5085012;28;20028;-74
2022/10/25 05:10:40;;;;;;;25.87;3.40;;;;;;;13.14;100.00;101447.50;5083542;28;20030;-74
2022/10/25 05:13:05;;;;;;;24.07;4.17;;;;;;;13.12;100.00;101441.38;5079465;28;20064;-74
2022/10/25 05:15:31;;;;;;;11.90;3.23;;;;;;;13.10;100.00;101448.94;5083369;28;20375;-74
2022/10/25 05:17:57;;;;;;;16.30;3.93;;;;;;;13.04;100.00;101449.75;5065465;28;20546;-74
2022/10/25 05:20:22;;;;;;;13.93;4.00;;;;;;;13.10;100.00;101458.06;5066835;28;20104;-74
2022/10/25 05:22:48;;;;;;;14.53;3.53;;;;;;;13.11;100.00;101453.41;5087158;28;20123;-74
2022/10/25 05:25:13;;;;;;;23.13;3.83;;;;;;;13.10;100.00;101448.94;5089483;28;20107;-73
2022/10/25 05:27:38;;;;;;;14.23;4.10;;;;;;;13.11;100.00;101447.91;5088933;28;20554;-75
2022/10/25 05:30:05;;;;;;;17.50;4.00;;;;;;;13.06;100.00;101453.13;5088321;28;20445;-76
2022/10/25 05:32:30;;;;;;;15.25;4.45;;;;;;;13.09;100.00;101461.88;5088563;28;20118;-75
2022/10/25 05:34:55;;;;;;;20.20;4.00;;;;;;;13.00;100.00;101460.31;5066814;28;20479;-75
2022/10/25 05:37:21;;;;;;;12.90;3.90;;;;;;;13.01;100.00;101463.88;5083317;28;20078;-75
2022/10/25 05:39:46;;;;;;;13.13;3.90;;;;;;;12.99;100.00;101455.00;5068980;28;21498;-76
2022/10/25 05:42:11;;;;;;;20.70;3.70;;;;;;;12.96;100.00;101458.16;5088253;28;20043;-75
2022/10/25 05:44:37;;;;;;;15.17;4.77;;;;;;;13.01;100.00;101466.63;5087744;28;20039;-74
2022/10/25 05:47:02;;;;;;;16.13;4.47;;;;;;;12.98;100.00;101469.78;5089343;28;20111;-74
2022/10/25 05:49:27;;;;;;;15.67;3.80;;;;;;;12.95;100.00;101470.16;5070250;28;20032;-74
2022/10/25 05:51:53;;;;;;;12.10;4.10;;;;;;;12.98;100.00;101465.13;5086281;28;20335;-75
2022/10/25 05:54:18;;;;;;;23.47;4.13;;;;;;;12.93;100.00;101469.50;5088068;28;20040;-73
2022/10/25 05:56:43;;;;;;;20.20;4.07;;;;;;;12.90;100.00;101473.50;5070345;28;20032;-74
2022/10/25 05:59:11;;;;;;;20.17;4.60;;;;;;;12.92;100.00;101476.06;5088531;28;20036;-75
2022/10/25 06:01:39;;;;;;;20.33;4.35;;;;;;;12.82;100.00;101476.38;5090148;28;20110;-74
2022/10/25 06:04:06;;;;;;;13.45;3.83;;;;;;;12.78;100.00;101474.22;5070824;28;20399;-74
2022/10/25 06:06:32;;;;;;;17.10;4.00;;;;;;;12.70;100.00;101479.84;5092430;28;20027;-75
2022/10/25 06:09:00;;;;;;;27.55;4.82;;;;;;;12.66;100.00;101481.28;5091184;28;20035;-75
2022/10/25 06:11:27;;;;;;;17.52;5.40;;;;;;;12.68;100.00;101484.69;5073668;28;20101;-75
2022/10/25 06:13:52;;;;;;;;;;;;;;;12.73;100.00;101484.94;5090376;28;20417;-74
2022/10/25 06:16:18;;;;;;;15.68;4.45;;;;;;;12.69;100.00;101497.38;5092039;28;19923;-74
2022/10/25 06:18:44;;;;;;;20.48;4.63;;;;;;;12.77;100.00;101489.00;5073968;28;20024;-73
2022/10/25 06:21:12;;;;;;;24.47;6.73;;;;;;;12.72;100.00;101486.88;5090240;28;20467;-74
2022/10/25 06:23:37;;;;;;;27.15;5.15;;;;;;;12.80;100.00;101485.88;5089909;28;20028;-74
2022/10/25 06:26:06;;;;;;;16.10;5.77;;;;;;;12.81;100.00;101495.84;5091722;28;20128;-73
2022/10/25 06:28:32;;;;;;;25.77;6.80;;;;;;;12.82;100.00;101497.53;5069822;28;20035;-73
2022/10/25 06:31:10;;;;;;;21.67;13.15;;;;;;;12.92;100.00;101500.81;5089901;28;20380;-75
2022/10/25 06:33:35;;;;;;;16.30;7.90;;;;;;;12.92;100.00;101507.13;5078495;28;20024;-73
2022/10/25 06:36:03;;;;;;;36.00;13.80;;;;;;;12.99;100.00;101510.00;5071369;28;20226;-74
2022/10/25 06:38:28;;;;;;;23.17;12.68;;;;;;;12.98;100.00;101513.81;5089523;28;20028;-74
2022/10/25 06:41:05;;;;;;;21.33;9.80;;;;;;;12.94;100.00;101516.06;5090673;28;20525;-74
2022/10/25 06:43:33;;;;;;;34.83;12.60;;;;;;;12.97;100.00;101517.59;5071003;28;20028;-73
2022/10/25 06:46:04;;;;;;;16.80;10.00;;;;;;;12.98;100.00;101524.81;5090830;28;20035;-73
2022/10/25 06:48:29;;;;;;;29.05;9.07;;;;;;;12.92;100.00;101520.06;5090281;28;20409;-74
2022/10/25 06:51:08;;;;;;;14.73;6.77;;;;;;;12.93;100.00;101522.63;5087338;28;20029;-74
2022/10/25 06:53:33;;;;;;;16.98;6.20;;;;;;;12.90;100.00;101523.00;5088597;28;20071;-73
2022/10/25 06:56:03;;;;;;;13.13;6.00;;;;;;;12.88;100.00;101533.34;5091228;28;20020;-74
2022/10/25 06:58:30;;;;;;;21.90;5.60;;;;;;;12.79;100.00;101523.50;5089427;28;20047;-74
2022/10/25 07:01:08;;;;;;;22.00;6.45;;;;;;;12.93;100.00;101535.50;5085543;28;20367;-74
2022/10/25 07:03:34;;;;;;;16.48;5.10;;;;;;;12.90;100.00;101536.75;5085195;28;20111;-73
2022/10/25 07:06:34;;;;;;;26.07;4.80;;;;;;;12.90;100.00;101556.00;5088985;28;20118;-74
2022/10/25 07:08:59;;;;;;;8.98;4.68;;;;;;;12.92;100.00;101551.13;5077938;28;20044;-74
2022/10/25 07:11:27;;;;;;;16.17;5.13;;;;;;;12.95;100.00;101549.91;5087870;28;20031;-73
2022/10/25 07:13:54;;;;;;;13.40;4.95;;;;;;;12.95;100.00;101560.91;5078396;28;20039;-75
2022/10/25 07:16:20;;;;;;;;;;;;;;;12.99;100.00;101565.00;5065606;28;20578;-73
2022/10/25 07:18:46;;;;;;;15.27;5.68;;;;;;;13.04;100.00;101563.38;5084900;28;20007;-74
2022/10/25 07:21:13;;;;;;;32.47;5.78;;;;;;;13.09;100.00;101563.66;5088579;28;20123;-73
2022/10/25 07:23:41;;;;;;;31.08;5.88;;;;;;;13.07;100.00;101570.38;5090023;28;20032;-74
2022/10/25 07:26:13;;;;;;;19.58;4.85;;;;;;;13.12;100.00;101563.25;5089331;28;20031;-73
2022/10/25 07:28:39;;;;;;;19.13;5.90;;;;;;;13.14;100.00;101565.81;5088765;28;20028;-74
2022/10/25 07:31:05;;;;;;;19.17;5.45;;;;;;;13.13;100.00;101566.84;5067180;28;20479;-74
2022/10/25 07:33:31;;;;;;;17.65;5.10;;;;;;;13.15;100.00;101571.13;5089331;28;20543;-73
2022/10/25 07:35:56;;;;;;;14.43;5.37;;;;;;;13.27;100.00;101565.91;5088891;28;20031;-73
2022/10/25 07:38:21;;;;;;;17.37;5.83;;;;;;;13.26;100.00;101580.72;5078836;28;20039;-74
2022/10/25 07:40:47;;;;;;;24.50;5.40;;;;;;;13.36;100.00;101584.00;5090181;28;20491;-74
2022/10/25 07:43:12;;;;;;;10.77;5.17;;;;;;;13.36;100.00;101590.38;5088208;28;20479;-74
2022/10/25 07:45:38;;;;;;;17.57;6.43;;;;;;;13.33;100.00;101596.25;5070490;28;20059;-73
2022/10/25 07:48:03;;;;;;;15.03;5.37;;;;;;;13.35;100.00;101593.31;5088407;28;20028;-74
2022/10/25 07:50:29;;;;;;;19.40;5.20;;;;;;;13.42;99.85;101592.34;5088283;28;20491;-74
2022/10/25 07:52:56;;;;;;;31.47;6.27;;;;;;;13.40;100.00;101601.84;5088843;28;20051;-74
2022/10/25 07:55:22;;;;;;;16.95;6.32;;;;;;;13.39;99.83;101608.38;5087790;28;20028;-73
2022/10/25 07:57:47;;;;;;;24.85;6.25;;;;;;;13.51;99.35;101598.53;5085799;28;20031;-73
2022/10/25 08:00:13;;;;;;;25.03;5.27;;;;;;;13.37;99.37;101592.06;5090814;28;20024;-73
2022/10/25 08:02:38;;;;;;;44.00;6.10;;;;;;;13.34;99.60;101600.72;5087387;28;20025;-74
2022/10/25 08:05:04;;;;;;;21.07;5.57;;;;;;;13.32;99.50;101602.81;5087806;28;20169;-73
2022/10/25 08:07:29;;;;;;;15.57;5.60;;;;;;;13.23;99.95;101605.91;5066118;28;20024;-74
2022/10/25 08:09:54;;;;;;;16.97;5.80;;;;;;;13.27;100.00;101605.31;5082610;28;20039;-74
2022/10/25 08:12:20;;;;;;;11.30;4.97;;;;;;;13.18;100.00;101609.22;5066200;28;20088;-73
2022/10/25 08:14:45;;;;;;;20.97;5.60;;;;;;;13.18;100.00;101611.97;5092098;28;20387;-74
2022/10/25 08:17:10;;;;;;;22.97;5.40;;;;;;;13.21;100.00;101616.22;5091998;28;20528;-73
2022/10/25 08:19:36;;;;;;;27.83;6.60;;;;;;;13.22;99.97;101618.78;5086109;28;20043;-73
2022/10/25 08:22:01;;;;;;;27.43;6.00;;;;;;;13.22;100.00;101617.94;5085682;28;20239;-74
2022/10/25 08:24:27;;;;;;;18.07;5.87;;;;;;;13.22;100.00;101612.41;5084311;28;20039;-74
2022/10/25 08:26:52;;;;;;;27.37;7.10;;;;;;;13.20;100.00;101620.03;5068600;28;20058;-73
2022/10/25 08:29:17;;;;;;;18.33;6.13;;;;;;;13.23;99.88;101620.50;5064267;28;20542;-73
2022/10/25 08:31:42;;;;;;;21.13;5.80;;;;;;;13.27;100.00;101627.31;5077719;28;20052;-73
2022/10/25 08:34:08;;;;;;;21.00;7.27;;;;;;;13.32;99.70;101619.31;5082484;28;20386;-73
2022/10/25 08:36:33;;;;;;;15.50;5.67;;;;;;;13.33;99.79;101612.78;5086559;28;20024;-73
2022/10/25 08:38:58;;;;;;;25.63;5.90;;;;;;;13.48;99.15;101612.69;5086336;28;20028;-74
2022/10/25 08:41:45;;;;;;;31.00;6.43;;;;;;;13.59;98.93;101618.53;5086665;28;20035;-74
2022/10/25 08:44:49;;;;;;;17.08;5.75;;;;;;;13.72;98.84;101626.06;5086394;28;20032;-73
2022/10/25 08:47:26;;;;;;;20.13;6.53;;;;;;;13.84;97.74;101625.31;5025301;28;20440;-73
2022/10/25 08:50:13;;;;;;;21.48;6.15;;;;;;;13.92;97.64;101636.19;5087832;28;20517;-73
2022/10/25 08:52:44;;;;;;;17.35;6.55;;;;;;;14.14;96.93;101623.22;5068575;28;20089;-74
2022/10/25 08:55:21;;;;;;;18.02;6.95;;;;;;;14.19;96.77;101635.34;5087211;28;20067;-74
2022/10/25 08:57:49;;;;;;;39.40;8.82;;;;;;;14.40;96.02;101634.44;5058512;28;20036;-74
2022/10/25 09:00:19;;;;;;;42.03;13.90;;;;;;;14.55;95.03;101635.16;5068007;28;20024;-73
2022/10/25 09:02:49;;;;;;;47.75;14.32;;;;;;;14.53;95.04;101643.66;5083254;28;20501;-72
2022/10/25 09:05:55;;;;;;;18.00;8.25;;;;;;;14.52;94.43;101649.34;5071781;28;20032;-73
2022/10/25 09:09:09;;;;;;;27.30;9.57;;;;;;;14.47;94.30;101663.72;5088126;28;20048;-73
2022/10/25 09:11:59;;;;;;;22.38;9.20;;;;;;;14.48;94.78;101657.19;5081485;28;20051;-72
2022/10/25 09:14:35;;;;;;;19.17;8.48;;;;;;;14.41;94.15;101656.28;5089126;28;20039;-73
2022/10/25 09:17:14;;;;;;;22.67;9.13;;;;;;;14.43;95.40;101667.09;5071539;28;20059;-72
2022/10/25 09:20:06;;;;;;;21.35;9.35;;;;;;;14.50;94.34;101665.22;5071222;28;20104;-73
2022/10/25 09:22:41;;;;;;;16.17;9.07;;;;;;;14.60;94.63;101668.47;5089025;28;20028;-74
2022/10/25 09:25:24;;;;;;;21.85;7.93;;;;;;;14.69;94.24;101668.13;5089496;28;20028;-73
2022/10/25 09:27:59;;;;;;;18.25;7.68;;;;;;;14.96;93.82;101669.09;5086498;28;20036;-73
2022/10/25 09:30:26;;;;;;;18.85;7.90;;;;;;;14.99;92.72;101668.69;5079335;28;20023;-73
2022/10/25 09:32:55;;;;;;;26.75;7.55;;;;;;;14.96;92.39;101669.97;5071380;28;20518;-73
2022/10/25 09:35:42;;;;;;;21.15;6.07;;;;;;;14.96;92.07;101669.97;5090444;28;20032;-73
2022/10/25 09:38:32;;;;;;;22.60;5.27;;;;;;;15.05;91.03;101656.84;5074709;28;20128;-73
2022/10/25 09:41:08;;;;;;;11.93;5.72;;;;;;;15.09;91.33;101663.63;5092687;28;20498;-73
2022/10/25 09:43:52;;;;;;;16.50;5.60;;;;;;;15.13;90.69;101667.66;5090677;28;20028;-73
2022/10/25 09:46:24;;;;;;;19.40;6.03;;;;;;;15.26;90.37;101670.50;5073036;28;20030;-73
2022/10/25 09:49:18;;;;;;;24.00;5.05;;;;;;;15.21;90.39;101673.84;5082729;28;20089;-72
2022/10/25 09:51:56;;;;;;;22.88;4.95;;;;;;;15.28;90.78;101668.38;5054790;28;20127;-73
2022/10/25 09:54:37;;;;;;;28.38;5.60;;;;;;;15.36;90.30;101671.00;5078621;28;20024;-73
2022/10/25 09:57:02;;;;;;;28.10;4.90;;;;;;;15.49;90.40;101671.88;5090595;28;20055;-74
2022/10/25 09:59:28;;;;;;;25.83;6.30;;;;;;;15.69;89.82;101677.44;5086840;28;20074;-74
2022/10/25 10:01:54;;;;;;;20.30;5.13;;;;;;;15.78;88.48;101667.84;5090626;28;20039;-73
2022/10/25 10:04:26;;;;;;;12.97;4.37;;;;;;;15.77;88.24;101678.06;5085926;28;20040;-73
2022/10/25 10:06:57;;;;;;;34.90;5.05;;;;;;;15.69;88.57;101678.25;5088533;28;20043;-73
2022/10/25 10:09:27;;;;;;;13.70;4.63;;;;;;;15.78;88.73;101685.28;5090981;28;20387;-73
2022/10/25 10:11:53;;;;;;;17.38;4.47;;;;;;;15.81;88.38;101681.25;5078906;28;20458;-73
2022/10/25 10:14:30;;;;;;;21.25;4.97;;;;;;;15.75;87.79;101698.69;5069168;28;20387;-73
2022/10/25 10:16:56;;;;;;;;;;;;;;;15.84;88.07;101694.66;5089359;28;20032;-73
2022/10/25 10:19:28;;;;;;;22.45;4.78;;;;;;;15.98;87.59;101690.84;5086313;28;19923;-74
2022/10/25 10:21:59;;;;;;;19.52;5.93;;;;;;;16.01;86.82;101691.25;5090706;28;20107;-73
2022/10/25 10:24:29;;;;;;;23.60;5.32;;;;;;;16.02;86.94;101689.34;5091934;28;20471;-73
2022/10/25 10:26:58;;;;;;;20.80;6.30;;;;;;;16.03;86.14;101686.38;5090811;28;20450;-73
2022/10/25 10:29:24;;;;;;;27.35;6.80;;;;;;;16.22;86.00;101699.34;5063161;28;20526;-73
2022/10/25 10:31:52;;;;;;;16.58;6.57;;;;;;;16.23;85.33;101697.44;5071937;28;20032;-73
2022/10/25 10:34:49;;;;;;;17.35;6.45;;;;;;;16.46;84.64;101697.88;5079734;28;20118;-73
2022/10/25 10:37:23;;;;;;;24.27;6.93;;;;;;;16.44;85.96;101697.25;5089819;28;20402;-73
2022/10/25 10:39:48;;;;;;;28.23;6.90;;;;;;;16.17;85.55;101698.28;5089248;28;20077;-74
2022/10/25 10:42:17;;;;;;;21.70;6.80;;;;;;;16.14;85.96;101704.22;5091887;28;20036;-73
2022/10/25 10:45:02;;;;;;;39.30;8.23;;;;;;;16.07;86.05;101700.63;5091847;28;20046;-73
2022/10/25 10:47:33;;;;;;;31.50;8.23;;;;;;;16.03;86.55;101704.88;5090743;28;20125;-74
2022/10/25 10:49:59;;;;;;;22.95;8.18;;;;;;;16.05;87.33;101705.50;5091839;28;20032;-74
2022/10/25 10:52:24;;;;;;;21.37;7.43;;;;;;;16.10;86.38;101705.72;5068434;28;20016;-74
2022/10/25 10:54:51;;;;;;;24.13;7.17;;;;;;;16.16;86.60;101702.97;5083617;28;20084;-73
2022/10/25 10:57:33;;;;;;;22.27;6.93;;;;;;;16.45;85.17;101707.22;5071980;28;20138;-73
2022/10/25 11:00:00;;;;;;;22.88;6.75;;;;;;;16.38;85.37;101709.13;5071343;28;20036;-74
2022/10/25 11:02:27;;;;;;;22.60;6.18;;;;;;;16.69;84.54;101698.25;5071002;28;20392;-74
2022/10/25 11:04:55;;;;;;;12.95;5.78;;;;;;;16.86;84.47;101716.94;5072926;28;20029;-73
2022/10/25 11:07:23;;;;;;;16.00;5.78;;;;;;;16.95;82.54;101703.72;5088318;28;20043;-73
2022/10/25 11:09:48;;;;;;;17.70;5.82;;;;;;;16.84;82.99;101712.69;5087728;28;20148;-73
2022/10/25 11:12:14;;;;;;;18.33;4.83;;;;;;;17.37;81.68;101708.66;5071090;28;20494;-73
2022/10/25 11:14:39;;;;;;;22.07;5.40;;;;;;;17.49;80.79;101707.78;5077769;28;20383;-73
2022/10/25 11:17:18;;;;;;;24.07;7.50;;;;;;;17.25;80.28;101716.81;5090065;28;20437;-73
2022/10/25 11:20:20;;;;;;;24.65;7.97;;;;;;;17.09;81.29;101717.31;5071046;28;20024;-73
2022/10/25 11:23:26;;;;;;;12.55;4.25;;;;;;;17.06;81.73;101720.50;5091231;28;20429;-74
2022/10/25 11:26:01;;;;;;;18.50;5.03;;;;;;;16.97;82.44;101718.19;5079947;28;20044;-73